sensor_id;sensor_type;location;lat;lon;timestamp;pressure;altitude;pressure_sealevel;temperature;humidity
75317;BME280;63913;51.492;10.368;2023-06-24T00:01:30;99244.88;;;13.77;98.12
75317;BME280;63913;51.492;10.368;2023-06-24T00:03:57;99240.66;;;13.82;98.10
75317;BME280;63913;51.492;10.368;2023-06-24T00:06:22;99239.19;;;13.95;97.12
75317;BME280;63913;51.492;10.368;2023-06-24T00:08:51;99242.63;;;13.92;95.84
75317;BME280;63913;51.492;10.368;2023-06-24T00:11:17;99238.25;;;13.90;96.48
75317;BME280;63913;51.492;10.368;2023-06-24T00:13:43;99234.81;;;13.91;96.48
75317;BME280;63913;51.492;10.368;2023-06-24T00:16:09;99225.63;;;14.05;95.98
75317;BME280;63913;51.492;10.368;2023-06-24T00:18:36;99225.34;;;13.91;95.65
75317;BME280;63913;51.492;10.368;2023-06-24T00:21:02;99221.91;;;13.91;96.10
75317;BME280;63913;51.492;10.368;2023-06-24T00:23:29;99222.66;;;13.87;96.17
75317;BME280;63913;51.492;10.368;2023-06-24T00:25:56;99234.63;;;13.82;97.13
75317;BME280;63913;51.492;10.368;2023-06-24T00:28:21;99235.63;;;13.88;96.48
75317;BME280;63913;51.492;10.368;2023-06-24T00:30:47;99238.16;;;13.85;96.24
75317;BME280;63913;51.492;10.368;2023-06-24T00:33:13;99245.59;;;13.70;96.74
75317;BME280;63913;51.492;10.368;2023-06-24T00:35:39;99248.31;;;13.76;96.69
75317;BME280;63913;51.492;10.368;2023-06-24T00:38:05;99246.63;;;13.80;95.85
75317;BME280;63913;51.492;10.368;2023-06-24T00:40:32;99257.59;;;13.68;96.00
75317;BME280;63913;51.492;10.368;2023-06-24T00:42:58;99256.78;;;13.70;96.08
75317;BME280;63913;51.492;10.368;2023-06-24T00:45:25;99254.19;;;13.69;96.04
75317;BME280;63913;51.492;10.368;2023-06-24T00:47:51;99252.31;;;13.63;96.07
75317;BME280;63913;51.492;10.368;2023-06-24T00:50:17;99256.78;;;13.70;96.14
75317;BME280;63913;51.492;10.368;2023-06-24T00:52:42;99257.44;;;13.60;96.20
75317;BME280;63913;51.492;10.368;2023-06-24T00:55:12;99258.94;;;13.51;96.36
75317;BME280;63913;51.492;10.368;2023-06-24T00:57:49;99267.25;;;13.38;97.35
75317;BME280;63913;51.492;10.368;2023-06-24T01:00:21;99270.53;;;13.32;97.54
75317;BME280;63913;51.492;10.368;2023-06-24T01:02:48;99267.91;;;13.30;97.82
75317;BME280;63913;51.492;10.368;2023-06-24T01:05:14;99270.72;;;13.40;97.77
75317;BME280;63913;51.492;10.368;2023-06-24T01:07:40;99274.78;;;13.28;98.00
75317;BME280;63913;51.492;10.368;2023-06-24T01:10:08;99279.66;;;13.18;98.35
75317;BME280;63913;51.492;10.368;2023-06-24T01:12:35;99271.94;;;13.18;97.99
75317;BME280;63913;51.492;10.368;2023-06-24T01:15:02;99278.91;;;13.22;97.80
75317;BME280;63913;51.492;10.368;2023-06-24T01:17:59;99272.75;;;13.17;98.15
75317;BME280;63913;51.492;10.368;2023-06-24T01:20:33;99276.41;;;13.25;97.47
75317;BME280;63913;51.492;10.368;2023-06-24T01:31:51;99280.66;;;12.90;98.42
75317;BME280;63913;51.492;10.368;2023-06-24T01:39:31;99258.59;;;13.03;97.51
75317;BME280;63913;51.492;10.368;2023-06-24T01:42:05;99262.28;;;13.12;96.55
75317;BME280;63913;51.492;10.368;2023-06-24T01:44:33;99253.41;;;13.01;97.19
75317;BME280;63913;51.492;10.368;2023-06-24T01:46:59;99260.34;;;13.04;97.14
75317;BME280;63913;51.492;10.368;2023-06-24T01:49:28;99265.13;;;13.21;96.61
75317;BME280;63913;51.492;10.368;2023-06-24T01:51:56;99257.31;;;13.18;95.90
75317;BME280;63913;51.492;10.368;2023-06-24T01:54:23;99256.59;;;13.25;96.32
75317;BME280;63913;51.492;10.368;2023-06-24T01:56:52;99254.25;;;13.34;95.16
75317;BME280;63913;51.492;10.368;2023-06-24T01:59:20;99255.88;;;13.29;94.95
75317;BME280;63913;51.492;10.368;2023-06-24T02:01:46;99261.16;;;13.35;94.90
75317;BME280;63913;51.492;10.368;2023-06-24T02:04:13;99261.34;;;13.09;95.43
75317;BME280;63913;51.492;10.368;2023-06-24T02:06:41;99271.63;;;13.07;96.10
75317;BME280;63913;51.492;10.368;2023-06-24T02:09:09;99272.16;;;12.94;96.16
75317;BME280;63913;51.492;10.368;2023-06-24T02:11:35;99263.78;;;13.03;96.47
75317;BME280;63913;51.492;10.368;2023-06-24T02:14:04;99264.78;;;13.09;95.91
75317;BME280;63913;51.492;10.368;2023-06-24T02:16:32;99265.19;;;12.91;96.22
75317;BME280;63913;51.492;10.368;2023-06-24T02:18:58;99267.69;;;12.87;95.90
75317;BME280;63913;51.492;10.368;2023-06-24T02:21:27;99264.19;;;12.85;96.31
75317;BME280;63913;51.492;10.368;2023-06-24T02:23:54;99263.19;;;12.80;96.26
75317;BME280;63913;51.492;10.368;2023-06-24T02:26:20;99250.59;;;12.92;95.77
75317;BME280;63913;51.492;10.368;2023-06-24T02:28:48;99252.28;;;12.91;95.46
75317;BME280;63913;51.492;10.368;2023-06-24T02:31:15;99246.94;;;12.84;96.08
75317;BME280;63913;51.492;10.368;2023-06-24T02:33:41;99245.88;;;12.76;95.89
75317;BME280;63913;51.492;10.368;2023-06-24T02:36:07;99249.22;;;12.72;95.91
75317;BME280;63913;51.492;10.368;2023-06-24T02:38:33;99249.81;;;12.61;96.41
75317;BME280;63913;51.492;10.368;2023-06-24T02:40:59;99253.03;;;12.53;96.93
75317;BME280;63913;51.492;10.368;2023-06-24T02:43:25;99247.97;;;12.56;96.89
75317;BME280;63913;51.492;10.368;2023-06-24T02:45:51;99261.38;;;12.44;97.21
75317;BME280;63913;51.492;10.368;2023-06-24T02:48:18;99255.59;;;12.53;96.30
75317;BME280;63913;51.492;10.368;2023-06-24T02:50:45;99258.13;;;12.51;96.25
75317;BME280;63913;51.492;10.368;2023-06-24T02:53:12;99267.53;;;12.48;96.42
75317;BME280;63913;51.492;10.368;2023-06-24T02:55:40;99259.84;;;12.51;95.88
75317;BME280;63913;51.492;10.368;2023-06-24T02:58:05;99257.16;;;12.46;95.63
75317;BME280;63913;51.492;10.368;2023-06-24T03:00:45;99258.06;;;12.48;95.58
75317;BME280;63913;51.492;10.368;2023-06-24T03:03:27;99259.69;;;12.45;95.80
75317;BME280;63913;51.492;10.368;2023-06-24T03:05:55;99262.34;;;12.48;95.48
75317;BME280;63913;51.492;10.368;2023-06-24T03:08:25;99266.34;;;12.37;96.00
75317;BME280;63913;51.492;10.368;2023-06-24T03:10:55;99273.16;;;12.35;95.91
75317;BME280;63913;51.492;10.368;2023-06-24T03:13:22;99269.84;;;12.39;95.17
75317;BME280;63913;51.492;10.368;2023-06-24T03:16:20;99275.53;;;12.27;96.58
75317;BME280;63913;51.492;10.368;2023-06-24T03:19:00;99274.53;;;12.22;96.32
75317;BME280;63913;51.492;10.368;2023-06-24T03:21:26;99275.47;;;12.24;95.86
75317;BME280;63913;51.492;10.368;2023-06-24T03:23:54;99275.47;;;12.24;95.78
75317;BME280;63913;51.492;10.368;2023-06-24T03:26:20;99275.69;;;12.33;95.94
75317;BME280;63913;51.492;10.368;2023-06-24T03:28:46;99272.28;;;12.34;95.45
75317;BME280;63913;51.492;10.368;2023-06-24T03:31:15;99268.75;;;12.31;94.70
75317;BME280;63913;51.492;10.368;2023-06-24T03:33:41;99278.00;;;12.22;95.71
75317;BME280;63913;51.492;10.368;2023-06-24T03:36:10;99282.00;;;12.13;96.37
75317;BME280;63913;51.492;10.368;2023-06-24T03:38:36;99281.22;;;12.15;96.00
75317;BME280;63913;51.492;10.368;2023-06-24T03:41:02;99275.84;;;12.08;96.42
75317;BME280;63913;51.492;10.368;2023-06-24T03:43:27;99271.59;;;12.10;96.54
75317;BME280;63913;51.492;10.368;2023-06-24T03:45:52;99279.28;;;12.08;96.45
75317;BME280;63913;51.492;10.368;2023-06-24T03:48:19;99276.94;;;12.16;95.93
75317;BME280;63913;51.492;10.368;2023-06-24T03:50:44;99289.75;;;12.13;96.29
75317;BME280;63913;51.492;10.368;2023-06-24T03:53:09;99287.09;;;12.11;96.25
75317;BME280;63913;51.492;10.368;2023-06-24T03:55:36;99298.72;;;12.27;95.55
75317;BME280;63913;51.492;10.368;2023-06-24T03:58:01;99292.44;;;12.47;94.33
75317;BME280;63913;51.492;10.368;2023-06-24T04:00:27;99293.09;;;12.40;94.73
75317;BME280;63913;51.492;10.368;2023-06-24T04:02:52;99298.78;;;12.29;95.20
75317;BME280;63913;51.492;10.368;2023-06-24T04:05:19;99303.97;;;12.30;95.80
75317;BME280;63913;51.492;10.368;2023-06-24T04:07:44;99297.56;;;12.16;96.67
75317;BME280;63913;51.492;10.368;2023-06-24T04:10:12;99288.19;;;12.19;96.38
75317;BME280;63913;51.492;10.368;2023-06-24T04:12:38;99298.34;;;12.13;97.54
75317;BME280;63913;51.492;10.368;2023-06-24T04:15:04;99292.47;;;12.19;97.24
75317;BME280;63913;51.492;10.368;2023-06-24T04:17:31;99299.44;;;12.21;97.17
75317;BME280;63913;51.492;10.368;2023-06-24T04:19:58;99310.47;;;12.17;97.48
75317;BME280;63913;51.492;10.368;2023-06-24T04:22:25;99304.59;;;12.21;97.72
75317;BME280;63913;51.492;10.368;2023-06-24T04:24:52;99308.97;;;12.24;98.02
75317;BME280;63913;51.492;10.368;2023-06-24T04:27:18;99315.91;;;12.27;97.98
75317;BME280;63913;51.492;10.368;2023-06-24T04:29:44;99318.47;;;12.27;98.62
75317;BME280;63913;51.492;10.368;2023-06-24T04:32:09;99316.94;;;12.32;99.27
75317;BME280;63913;51.492;10.368;2023-06-24T04:34:34;99320.63;;;12.41;99.10
75317;BME280;63913;51.492;10.368;2023-06-24T04:37:00;99308.91;;;12.52;99.62
75317;BME280;63913;51.492;10.368;2023-06-24T04:39:26;99311.88;;;12.68;99.42
75317;BME280;63913;51.492;10.368;2023-06-24T04:41:52;99306.34;;;12.85;99.09
75317;BME280;63913;51.492;10.368;2023-06-24T04:44:17;99305.81;;;12.98;99.18
75317;BME280;63913;51.492;10.368;2023-06-24T04:46:42;99307.84;;;13.10;99.66
75317;BME280;63913;51.492;10.368;2023-06-24T04:49:08;99297.84;;;13.22;99.54
75317;BME280;63913;51.492;10.368;2023-06-24T04:51:33;99304.81;;;13.25;100.00
75317;BME280;63913;51.492;10.368;2023-06-24T04:53:59;99302.44;;;13.34;100.00
75317;BME280;63913;51.492;10.368;2023-06-24T04:56:25;99302.69;;;13.43;100.00
75317;BME280;63913;51.492;10.368;2023-06-24T04:58:51;99307.19;;;13.52;99.74
75317;BME280;63913;51.492;10.368;2023-06-24T05:01:17;99312.28;;;13.49;100.00
75317;BME280;63913;51.492;10.368;2023-06-24T05:03:42;99315.13;;;13.59;100.00
75317;BME280;63913;51.492;10.368;2023-06-24T05:06:08;99315.22;;;13.64;100.00
75317;BME280;63913;51.492;10.368;2023-06-24T05:08:33;99311.88;;;13.68;99.93
75317;BME280;63913;51.492;10.368;2023-06-24T05:10:58;99306.75;;;13.71;100.00
75317;BME280;63913;51.492;10.368;2023-06-24T05:13:24;99301.75;;;13.79;100.00
75317;BME280;63913;51.492;10.368;2023-06-24T05:15:49;99309.63;;;13.83;100.00
75317;BME280;63913;51.492;10.368;2023-06-24T05:18:14;99302.06;;;13.92;100.00
75317;BME280;63913;51.492;10.368;2023-06-24T05:20:40;99305.53;;;13.93;99.96
75317;BME280;63913;51.492;10.368;2023-06-24T05:23:05;99306.50;;;13.98;100.00
75317;BME280;63913;51.492;10.368;2023-06-24T05:25:31;99310.91;;;14.02;99.47
75317;BME280;63913;51.492;10.368;2023-06-24T05:27:56;99312.72;;;14.06;99.04
75317;BME280;63913;51.492;10.368;2023-06-24T05:30:22;99310.28;;;14.13;98.09
75317;BME280;63913;51.492;10.368;2023-06-24T05:32:47;99317.28;;;14.18;97.94
75317;BME280;63913;51.492;10.368;2023-06-24T05:35:13;99326.78;;;14.20;98.22
75317;BME280;63913;51.492;10.368;2023-06-24T05:37:38;99326.88;;;14.23;98.09
75317;BME280;63913;51.492;10.368;2023-06-24T05:40:04;99326.06;;;14.26;98.56
75317;BME280;63913;51.492;10.368;2023-06-24T05:42:30;99328.75;;;14.30;98.26
75317;BME280;63913;51.492;10.368;2023-06-24T05:44:55;99320.22;;;14.34;98.46
75317;BME280;63913;51.492;10.368;2023-06-24T05:47:21;99321.09;;;14.36;98.82
75317;BME280;63913;51.492;10.368;2023-06-24T05:49:46;99326.31;;;14.38;98.65
75317;BME280;63913;51.492;10.368;2023-06-24T05:52:11;99327.34;;;14.44;98.61
75317;BME280;63913;51.492;10.368;2023-06-24T05:54:37;99322.38;;;14.55;98.97
75317;BME280;63913;51.492;10.368;2023-06-24T05:57:02;99325.00;;;14.57;98.63
75317;BME280;63913;51.492;10.368;2023-06-24T05:59:31;99327.75;;;14.64;98.45
75317;BME280;63913;51.492;10.368;2023-06-24T06:01:56;99325.22;;;14.69;98.38
75317;BME280;63913;51.492;10.368;2023-06-24T06:04:22;99327.81;;;14.69;98.62
75317;BME280;63913;51.492;10.368;2023-06-24T06:06:47;99334.75;;;14.70;99.28
75317;BME280;63913;51.492;10.368;2023-06-24T06:09:12;99332.22;;;14.73;99.16
75317;BME280;63913;51.492;10.368;2023-06-24T06:11:38;99339.19;;;14.77;98.27
75317;BME280;63913;51.492;10.368;2023-06-24T06:14:03;99334.00;;;14.75;98.16
75317;BME280;63913;51.492;10.368;2023-06-24T06:16:28;99336.63;;;14.78;99.16
75317;BME280;63913;51.492;10.368;2023-06-24T06:18:54;99339.34;;;14.84;99.13
75317;BME280;63913;51.492;10.368;2023-06-24T06:21:19;99346.34;;;14.88;98.35
75317;BME280;63913;51.492;10.368;2023-06-24T06:23:44;99345.56;;;14.94;98.32
75317;BME280;63913;51.492;10.368;2023-06-24T06:26:12;99343.03;;;14.97;98.00
75317;BME280;63913;51.492;10.368;2023-06-24T06:28:38;99349.16;;;15.02;96.94
75317;BME280;63913;51.492;10.368;2023-06-24T06:31:03;99349.19;;;15.04;96.02
75317;BME280;63913;51.492;10.368;2023-06-24T06:33:29;99347.59;;;15.10;95.51
75317;BME280;63913;51.492;10.368;2023-06-24T06:35:54;99352.03;;;15.16;95.18
75317;BME280;63913;51.492;10.368;2023-06-24T06:38:19;99351.28;;;15.23;95.78
75317;BME280;63913;51.492;10.368;2023-06-24T06:40:45;99352.25;;;15.30;94.96
75317;BME280;63913;51.492;10.368;2023-06-24T06:43:10;99351.44;;;15.32;94.10
75317;BME280;63913;51.492;10.368;2023-06-24T06:45:36;99350.66;;;15.38;92.50
75317;BME280;63913;51.492;10.368;2023-06-24T06:48:02;99342.91;;;15.41;93.09
75317;BME280;63913;51.492;10.368;2023-06-24T06:50:27;99349.91;;;15.45;93.30
75317;BME280;63913;51.492;10.368;2023-06-24T06:52:52;99340.47;;;15.48;93.95
75317;BME280;63913;51.492;10.368;2023-06-24T06:55:18;99345.69;;;15.51;93.22
75317;BME280;63913;51.492;10.368;2023-06-24T06:57:43;99341.44;;;15.53;90.68
75317;BME280;63913;51.492;10.368;2023-06-24T07:00:09;99341.69;;;15.69;89.24
75317;BME280;63913;51.492;10.368;2023-06-24T07:02:34;99345.19;;;15.71;88.89
75317;BME280;63913;51.492;10.368;2023-06-24T07:05:00;99344.34;;;15.73;88.78
75317;BME280;63913;51.492;10.368;2023-06-24T07:07:26;99347.81;;;15.74;85.88
75317;BME280;63913;51.492;10.368;2023-06-24T07:09:51;99343.53;;;15.76;85.06
75317;BME280;63913;51.492;10.368;2023-06-24T07:12:16;99346.19;;;15.80;83.78
75317;BME280;63913;51.492;10.368;2023-06-24T07:14:42;99342.78;;;15.84;86.15
75317;BME280;63913;51.492;10.368;2023-06-24T07:17:07;99348.91;;;15.89;81.21
75317;BME280;63913;51.492;10.368;2023-06-24T07:19:33;99354.19;;;15.94;81.42
75317;BME280;63913;51.492;10.368;2023-06-24T07:21:58;99351.66;;;16.00;82.09
75317;BME280;63913;51.492;10.368;2023-06-24T07:24:23;99345.63;;;16.01;82.57
75317;BME280;63913;51.492;10.368;2023-06-24T07:26:49;99346.53;;;16.03;76.86
75317;BME280;63913;51.492;10.368;2023-06-24T07:29:14;99344.84;;;16.08;77.61
75317;BME280;63913;51.492;10.368;2023-06-24T07:31:39;99344.97;;;16.16;77.75
75317;BME280;63913;51.492;10.368;2023-06-24T07:34:05;99337.22;;;16.19;77.32
75317;BME280;63913;51.492;10.368;2023-06-24T07:36:30;99337.28;;;16.23;79.14
75317;BME280;63913;51.492;10.368;2023-06-24T07:38:56;99345.94;;;16.24;78.93
75317;BME280;63913;51.492;10.368;2023-06-24T07:41:21;99342.50;;;16.25;78.40
75317;BME280;63913;51.492;10.368;2023-06-24T07:43:47;99339.94;;;16.28;76.69
75317;BME280;63913;51.492;10.368;2023-06-24T07:46:12;99343.44;;;16.31;77.95
75317;BME280;63913;51.492;10.368;2023-06-24T07:48:37;99347.00;;;16.39;77.10
75317;BME280;63913;51.492;10.368;2023-06-24T07:51:03;99351.41;;;16.45;77.61
75317;BME280;63913;51.492;10.368;2023-06-24T07:53:28;99358.50;;;16.58;75.47
75317;BME280;63913;51.492;10.368;2023-06-24T07:55:53;99349.84;;;16.59;71.79
75317;BME280;63913;51.492;10.368;2023-06-24T07:58:19;99349.06;;;16.63;70.62
75317;BME280;63913;51.492;10.368;2023-06-24T08:00:44;99344.75;;;16.65;69.25
75317;BME280;63913;51.492;10.368;2023-06-24T08:03:10;99343.09;;;16.72;69.00
75317;BME280;63913;51.492;10.368;2023-06-24T08:05:35;99346.72;;;16.85;65.43
75317;BME280;63913;51.492;10.368;2023-06-24T08:08:01;99343.34;;;16.93;65.40
75317;BME280;63913;51.492;10.368;2023-06-24T08:10:26;99342.53;;;16.99;63.40
75317;BME280;63913;51.492;10.368;2023-06-24T08:12:51;99349.53;;;17.06;64.84
75317;BME280;63913;51.492;10.368;2023-06-24T08:15:17;99340.09;;;17.14;62.11
75317;BME280;63913;51.492;10.368;2023-06-24T08:17:42;99351.41;;;17.22;60.78
75317;BME280;63913;51.492;10.368;2023-06-24T08:20:08;99338.47;;;17.27;61.40
75317;BME280;63913;51.492;10.368;2023-06-24T08:22:33;99335.94;;;17.36;62.22
75317;BME280;63913;51.492;10.368;2023-06-24T08:24:59;99343.91;;;17.54;62.62
75317;BME280;63913;51.492;10.368;2023-06-24T08:27:24;99337.16;;;17.74;62.52
75317;BME280;63913;51.492;10.368;2023-06-24T08:29:50;99339.00;;;17.93;61.94
75317;BME280;63913;51.492;10.368;2023-06-24T08:32:15;99340.00;;;18.17;62.34
75317;BME280;63913;51.492;10.368;2023-06-24T08:34:40;99339.22;;;18.30;61.41
75317;BME280;63913;51.492;10.368;2023-06-24T08:37:06;99340.19;;;18.52;60.95
75317;BME280;63913;51.492;10.368;2023-06-24T08:39:31;99335.97;;;18.72;57.50
75317;BME280;63913;51.492;10.368;2023-06-24T08:41:56;99346.44;;;18.89;56.89
75317;BME280;63913;51.492;10.368;2023-06-24T08:44:22;99332.56;;;19.16;58.46
75317;BME280;63913;51.492;10.368;2023-06-24T08:46:48;99332.56;;;19.38;57.66
75317;BME280;63913;51.492;10.368;2023-06-24T08:52:03;99342.19;;;19.76;55.61
75317;BME280;63913;51.492;10.368;2023-06-24T08:54:30;99343.03;;;19.84;56.22
75317;BME280;63913;51.492;10.368;2023-06-24T08:56:59;99348.25;;;19.87;55.67
75317;BME280;63913;51.492;10.368;2023-06-24T08:59:26;99350.84;;;19.98;55.41
75317;BME280;63913;51.492;10.368;2023-06-24T09:01:52;99346.47;;;20.06;55.40
75317;BME280;63913;51.492;10.368;2023-06-24T09:04:17;99339.50;;;20.11;56.69
75317;BME280;63913;51.492;10.368;2023-06-24T09:06:42;99342.06;;;20.31;56.11
75317;BME280;63913;51.492;10.368;2023-06-24T09:09:21;99346.41;;;20.36;56.08
75317;BME280;63913;51.492;10.368;2023-06-24T09:11:53;99345.47;;;20.54;56.16
75317;BME280;63913;51.492;10.368;2023-06-24T09:14:19;99345.44;;;20.62;57.21
75317;BME280;63913;51.492;10.368;2023-06-24T09:16:58;99335.88;;;20.67;55.55
75317;BME280;63913;51.492;10.368;2023-06-24T09:19:27;99337.56;;;20.68;55.43
75317;BME280;63913;51.492;10.368;2023-06-24T09:21:57;99337.56;;;20.72;56.42
75317;BME280;63913;51.492;10.368;2023-06-24T09:24:36;99336.66;;;20.79;57.13
75317;BME280;63913;51.492;10.368;2023-06-24T09:27:03;99339.31;;;20.72;56.17
75317;BME280;63913;51.492;10.368;2023-06-24T09:29:33;99334.94;;;20.75;56.99
75317;BME280;63913;51.492;10.368;2023-06-24T09:31:59;99329.66;;;20.86;58.33
75317;BME280;63913;51.492;10.368;2023-06-24T09:34:26;99329.72;;;20.74;58.42
75317;BME280;63913;51.492;10.368;2023-06-24T09:36:56;99324.44;;;20.80;59.46
75317;BME280;63913;51.492;10.368;2023-06-24T09:39:22;99321.88;;;20.75;59.64
75317;BME280;63913;51.492;10.368;2023-06-24T09:41:55;99316.63;;;20.81;59.70
75317;BME280;63913;51.492;10.368;2023-06-24T09:44:20;99320.97;;;20.78;58.91
75317;BME280;63913;51.492;10.368;2023-06-24T09:46:46;99314.81;;;20.85;59.77
75317;BME280;63913;51.492;10.368;2023-06-24T09:49:12;99320.00;;;20.97;59.91
75317;BME280;63913;51.492;10.368;2023-06-24T09:51:39;99316.47;;;21.04;59.24
75317;BME280;63913;51.492;10.368;2023-06-24T09:54:08;99305.94;;;21.12;58.57
75317;BME280;63913;51.492;10.368;2023-06-24T09:56:36;99315.50;;;21.22;59.53
75317;BME280;63913;51.492;10.368;2023-06-24T09:59:04;99305.03;;;21.20;58.68
75317;BME280;63913;51.492;10.368;2023-06-24T10:01:31;99313.66;;;21.33;59.86
75317;BME280;63913;51.492;10.368;2023-06-24T10:03:58;99311.00;;;21.39;58.23
75317;BME280;63913;51.492;10.368;2023-06-24T10:06:25;99304.00;;;21.41;57.81
75317;BME280;63913;51.492;10.368;2023-06-24T10:08:51;99309.22;;;21.46;58.02
75317;BME280;63913;51.492;10.368;2023-06-24T10:11:17;99304.78;;;21.52;59.08
75317;BME280;63913;51.492;10.368;2023-06-24T10:13:42;99303.03;;;21.54;58.85
75317;BME280;63913;51.492;10.368;2023-06-24T10:16:07;99298.59;;;21.61;58.53
75317;BME280;63913;51.492;10.368;2023-06-24T10:18:37;99293.34;;;21.64;57.90
75317;BME280;63913;51.492;10.368;2023-06-24T10:21:05;99297.66;;;21.66;57.55
75317;BME280;63913;51.492;10.368;2023-06-24T10:23:33;99295.91;;;21.70;57.69
75317;BME280;63913;51.492;10.368;2023-06-24T10:25:58;99297.56;;;21.76;57.60
75317;BME280;63913;51.492;10.368;2023-06-24T10:28:24;99296.63;;;21.84;57.59
75317;BME280;63913;51.492;10.368;2023-06-24T10:30:56;99297.47;;;21.86;57.04
75317;BME280;63913;51.492;10.368;2023-06-24T10:33:24;99298.38;;;21.85;57.21
75317;BME280;63913;51.492;10.368;2023-06-24T10:35:49;99287.81;;;21.91;56.98
75317;BME280;63913;51.492;10.368;2023-06-24T10:38:16;99281.63;;;22.01;57.37
75317;BME280;63913;51.492;10.368;2023-06-24T10:40:42;99289.34;;;22.14;57.14
75317;BME280;63913;51.492;10.368;2023-06-24T10:43:27;99290.28;;;22.10;55.52
75317;BME280;63913;51.492;10.368;2023-06-24T10:45:55;99291.94;;;22.15;56.46
75317;BME280;63913;51.492;10.368;2023-06-24T10:48:21;99291.81;;;22.29;55.84
75317;BME280;63913;51.492;10.368;2023-06-24T10:50:47;99282.97;;;22.36;52.28
75317;BME280;63913;51.492;10.368;2023-06-24T10:53:14;99287.28;;;22.40;53.02
75317;BME280;63913;51.492;10.368;2023-06-24T10:55:40;99288.09;;;22.45;54.27
75317;BME280;63913;51.492;10.368;2023-06-24T10:58:09;99288.03;;;22.51;51.98
75317;BME280;63913;51.492;10.368;2023-06-24T11:00:36;99281.91;;;22.49;51.34
75317;BME280;63913;51.492;10.368;2023-06-24T11:03:16;99271.31;;;22.58;50.65
75317;BME280;63913;51.492;10.368;2023-06-24T11:05:42;99272.94;;;22.68;53.03
75317;BME280;63913;51.492;10.368;2023-06-24T11:08:09;99265.84;;;22.76;52.58
75317;BME280;63913;51.492;10.368;2023-06-24T11:10:48;99268.34;;;22.86;51.84
75317;BME280;63913;51.492;10.368;2023-06-24T11:13:14;99262.09;;;22.94;48.50
75317;BME280;63913;51.492;10.368;2023-06-24T11:15:40;99263.63;;;23.07;51.11
75317;BME280;63913;51.492;10.368;2023-06-24T11:18:09;99268.78;;;23.12;50.15
75317;BME280;63913;51.492;10.368;2023-06-24T11:20:38;99268.72;;;23.18;51.47
75317;BME280;63913;51.492;10.368;2023-06-24T11:23:09;99260.78;;;23.19;51.65
75317;BME280;63913;51.492;10.368;2023-06-24T11:25:40;99256.50;;;23.15;51.61
75317;BME280;63913;51.492;10.368;2023-06-24T11:28:12;99265.25;;;23.14;51.08
75317;BME280;63913;51.492;10.368;2023-06-24T11:30:38;99265.97;;;23.26;52.23
75317;BME280;63913;51.492;10.368;2023-06-24T11:33:03;99262.34;;;23.33;51.62
75317;BME280;63913;51.492;10.368;2023-06-24T11:35:28;99262.22;;;23.40;51.97
75317;BME280;63913;51.492;10.368;2023-06-24T11:37:57;99257.72;;;23.48;51.02
75317;BME280;63913;51.492;10.368;2023-06-24T11:40:23;99256.59;;;23.63;52.20
75317;BME280;63913;51.492;10.368;2023-06-24T11:42:48;99252.16;;;23.67;50.92
75317;BME280;63913;51.492;10.368;2023-06-24T11:45:20;99252.81;;;23.76;51.76
75317;BME280;63913;51.492;10.368;2023-06-24T11:47:45;99246.59;;;23.82;51.08
75317;BME280;63913;51.492;10.368;2023-06-24T11:50:11;99237.78;;;23.84;50.84
75317;BME280;63913;51.492;10.368;2023-06-24T11:52:47;99240.22;;;23.93;50.11
75317;BME280;63913;51.492;10.368;2023-06-24T11:57:59;99231.28;;;24.04;49.99
75317;BME280;63913;51.492;10.368;2023-06-24T12:00:31;99225.19;;;24.02;49.92
75317;BME280;63913;51.492;10.368;2023-06-24T12:03:02;99217.81;;;24.20;50.19
75317;BME280;63913;51.492;10.368;2023-06-24T12:05:31;99235.00;;;24.37;50.71
75317;BME280;63913;51.492;10.368;2023-06-24T12:07:58;99221.66;;;24.46;49.61
75317;BME280;63913;51.492;10.368;2023-06-24T12:10:24;99219.88;;;24.48;47.60
75317;BME280;63913;51.492;10.368;2023-06-24T12:12:50;99218.63;;;24.64;48.98
75317;BME280;63913;51.492;10.368;2023-06-24T12:15:16;99212.28;;;24.73;48.20
75317;BME280;63913;51.492;10.368;2023-06-24T12:17:41;99221.94;;;24.72;48.30
75317;BME280;63913;51.492;10.368;2023-06-24T12:20:07;99210.13;;;24.51;48.60
75317;BME280;63913;51.492;10.368;2023-06-24T12:22:33;99208.97;;;24.64;50.10
75317;BME280;63913;51.492;10.368;2023-06-24T12:24:58;99206.03;;;24.77;48.59
75317;BME280;63913;51.492;10.368;2023-06-24T12:27:23;99201.97;;;24.63;48.60
75317;BME280;63913;51.492;10.368;2023-06-24T12:29:48;99210.47;;;24.75;48.74
75317;BME280;63913;51.492;10.368;2023-06-24T12:32:14;99204.09;;;24.85;47.71
75317;BME280;63913;51.492;10.368;2023-06-24T12:34:39;99197.78;;;24.93;46.86
75317;BME280;63913;51.492;10.368;2023-06-24T12:37:04;99201.94;;;25.02;47.81
75317;BME280;63913;51.492;10.368;2023-06-24T12:39:30;99197.28;;;25.13;49.13
75317;BME280;63913;51.492;10.368;2023-06-24T12:41:55;99201.59;;;25.16;47.27
75317;BME280;63913;51.492;10.368;2023-06-24T12:44:20;99200.28;;;24.98;49.05
75317;BME280;63913;51.492;10.368;2023-06-24T12:46:46;99194.22;;;24.96;47.89
75317;BME280;63913;51.492;10.368;2023-06-24T12:49:11;99198.78;;;24.86;49.31
75317;BME280;63913;51.492;10.368;2023-06-24T12:51:36;99196.06;;;24.89;48.20
75317;BME280;63913;51.492;10.368;2023-06-24T12:54:02;99195.63;;;24.72;47.88
75317;BME280;63913;51.492;10.368;2023-06-24T12:56:27;99202.03;;;24.60;49.75
75317;BME280;63913;51.492;10.368;2023-06-24T12:58:52;99198.75;;;24.51;49.20
75317;BME280;63913;51.492;10.368;2023-06-24T13:01:18;99201.97;;;24.63;49.21
75317;BME280;63913;51.492;10.368;2023-06-24T13:03:43;99193.75;;;24.77;48.22
75317;BME280;63913;51.492;10.368;2023-06-24T13:06:08;99187.47;;;24.83;49.67
75317;BME280;63913;51.492;10.368;2023-06-24T13:08:34;99193.97;;;24.68;48.81